This is the latest recevied weather packets stored in our database for station/object N9CQS-15. If no packets are shown the sender has not sent any weather packets the latest 10 day(s).
| Time | Temp. | Humidity | Pressure | Rain* | Wind** | Luminosity | Snow |
|---|---|---|---|---|---|---|---|
| 1777419542 | 15.56° C | 70% | 1014.1 hPa | 0 mm | - | - | - |
| 1777418942 | 15.56° C | 72% | 1014.3 hPa | 0 mm | - | - | - |
| 1777418342 | 15.56° C | 72% | 1014.1 hPa | 0 mm | - | - | - |
| 1777417741 | 15.56° C | 72% | 1014.1 hPa | 0 mm | - | - | - |
| 1777417141 | 16.11° C | 70% | 1013.6 hPa | 0 mm | - | - | - |
| 1777416542 | 16.11° C | 70% | 1014.1 hPa | 0 mm | - | - | - |
| 1777415941 | 16.11° C | 70% | 1014.4 hPa | 0 mm | - | - | - |
| 1777415341 | 16.67° C | 69% | 1014.6 hPa | 0 mm | - | - | - |
| 1777414742 | 16.67° C | 67% | 1014.7 hPa | 0 mm | - | - | - |
| 1777414142 | 16.67° C | 68% | 1014.7 hPa | 0 mm | - | - | - |
| 1777413542 | 17.22° C | 66% | 1014.7 hPa | 0 mm | - | - | - |
| 1777412942 | 17.78° C | 64% | 1014.6 hPa | 0 mm | - | - | - |
| 1777412342 | 17.78° C | 63% | 1014.2 hPa | 0 mm | - | - | - |
| 1777411742 | 17.78° C | 62% | 1014 hPa | 0 mm | - | - | - |
| 1777411142 | 17.78° C | 63% | 1014 hPa | 0 mm | - | - | - |
| 1777410542 | 17.78° C | 62% | 1013.6 hPa | 0 mm | - | - | - |
| 1777409942 | 17.78° C | 60% | 1013.6 hPa | 0 mm | - | - | - |
| 1777409342 | 16.67° C | 63% | 1014.5 hPa | 0 mm | - | - | - |
| 1777408742 | 17.78° C | 61% | 1014.6 hPa | 0 mm | - | - | - |
| 1777408142 | 16.67° C | 63% | 1015.4 hPa | 0 mm | - | - | - |
| 1777407541 | 16.67° C | 64% | 1015.7 hPa | 0 mm | - | - | - |
| 1777406942 | 16.11° C | 66% | 1015.9 hPa | 0 mm | - | - | - |
| 1777406342 | 16.11° C | 65% | 1016.1 hPa | 0 mm | - | - | - |
| 1777405742 | 16.11° C | 65% | 1016.1 hPa | 0 mm | - | - | - |
| 1777405141 | 16.11° C | 65% | 1015.8 hPa | 0 mm | - | - | - |
* Rain latest hour (hover to see other rain measurements)
** Current wind speed in m/s (hover to see current wind gust speed)